Time;durP1;ratioP1;P1;durP2;ratioP2;P2;SDS_P1;SDS_P2;PMS_P1;PMS_P2;Temp;Humidity;BMP_temperature;BMP_pressure;BME280_temperature;BME280_humidity;BME280_pressure;Samples;Min_cycle;Max_cycle;Signal;HPM_P1;HPM_P2
2023/01/18 00:28:30;;;;;;;3.20;1.40;;;0.90;99.90;;;;;;6310750;22;20047;-93
2023/01/18 00:30:56;;;;;;;3.45;1.23;;;0.90;99.90;;;;;;6282569;22;20030;-94
2023/01/18 00:33:22;;;;;;;4.33;1.60;;;0.90;99.90;;;;;;6257172;22;20011;-95
2023/01/18 00:35:59;;;;;;;4.97;1.23;;;0.90;99.90;;;;;;6257064;22;20015;-94
2023/01/18 00:38:26;;;;;;;4.43;1.35;;;0.90;99.90;;;;;;6282409;22;20494;-94
2023/01/18 00:40:55;;;;;;;;;;;0.90;99.90;;;;;;6284123;22;20015;-96
2023/01/18 00:43:38;;;;;;;;;;;0.90;99.90;;;;;;6283757;22;19922;-95
2023/01/18 00:46:10;;;;;;;5.10;1.50;;;0.90;99.90;;;;;;6282451;22;20283;-95
2023/01/18 00:48:43;;;;;;;5.60;1.40;;;0.90;99.90;;;;;;6283362;22;20022;-95
2023/01/18 00:51:14;;;;;;;3.47;1.45;;;0.90;99.90;;;;;;6282407;22;20019;-95
2023/01/18 00:53:43;;;;;;;2.70;1.33;;;0.90;99.90;;;;;;6282895;22;20358;-95
2023/01/18 00:56:38;;;;;;;5.13;1.60;;;0.90;99.90;;;;;;6282588;22;20337;-96
2023/01/18 00:59:07;;;;;;;3.60;1.55;;;0.90;99.90;;;;;;6268347;22;20022;-96
2023/01/18 01:01:38;;;;;;;4.18;1.40;;;0.90;99.90;;;;;;6282394;22;20022;-96
2023/01/18 01:06:48;;;;;;;4.35;1.40;;;0.90;99.90;;;;;;6286447;22;20020;-94
2023/01/18 01:09:18;;;;;;;3.85;1.33;;;0.80;99.90;;;;;;6282357;22;20098;-94
2023/01/18 01:36:13;;;;;;;4.82;1.40;;;0.80;99.90;;;;;;6246309;22;20377;-92
2023/01/18 01:38:40;;;;;;;5.13;1.50;;;0.70;99.90;;;;;;6195807;23;20020;-92
2023/01/18 01:41:07;;;;;;;;;;;0.70;99.90;;;;;;6195906;23;20020;-92
2023/01/18 01:43:37;;;;;;;4.35;1.40;;;0.70;99.90;;;;;;6195447;23;19915;-92
2023/01/18 01:46:03;;;;;;;2.97;1.25;;;0.70;99.90;;;;;;6195459;23;20019;-92
2023/01/18 01:48:30;;;;;;;6.07;1.52;;;0.70;99.90;;;;;;6195756;23;20125;-93
2023/01/18 01:50:55;;;;;;;3.47;1.50;;;0.70;99.90;;;;;;6195301;23;20016;-92
2023/01/18 01:53:21;;;;;;;3.65;1.27;;;0.70;99.90;;;;;;6195278;23;20247;-95
2023/01/18 01:55:47;;;;;;;4.32;1.20;;;0.70;99.90;;;;;;6195475;23;20016;-93
2023/01/18 01:58:24;;;;;;;2.63;1.10;;;0.70;99.90;;;;;;6195157;23;20018;-94
2023/01/18 02:01:06;;;;;;;3.92;1.20;;;0.70;99.90;;;;;;6195101;23;20023;-94
2023/01/18 02:04:09;;;;;;;4.45;1.65;;;0.80;99.90;;;;;;6173895;23;20016;-96
2023/01/18 02:38:59;;;;;;;4.10;1.30;;;0.60;99.90;;;;;;6307218;22;20023;-94
2023/01/18 02:47:27;;;;;;;3.60;1.25;;;0.60;99.90;;;;;;6280612;22;20023;-91
2023/01/18 02:49:55;;;;;;;;;;;0.60;99.90;;;;;;6256081;22;20046;-93
2023/01/18 02:56:48;;;;;;;3.70;1.25;;;0.60;99.90;;;;;;6308657;22;20014;-93
2023/01/18 02:59:25;;;;;;;5.18;1.40;;;0.60;99.90;;;;;;6256817;22;20033;-93
2023/01/18 03:01:59;;;;;;;3.75;1.20;;;0.60;99.90;;;;;;6255393;22;20352;-93
2023/01/18 03:04:27;;;;;;;4.50;1.67;;;0.60;99.90;;;;;;6255674;22;20266;-93
2023/01/18 03:07:02;;;;;;;3.47;1.42;;;0.50;99.90;;;;;;6255553;22;20090;-91
2023/01/18 03:09:29;;;;;;;2.25;1.10;;;0.50;99.90;;;;;;6255614;22;20016;-92
2023/01/18 03:12:04;;;;;;;5.60;2.00;;;0.40;99.90;;;;;;6255187;22;20179;-93
2023/01/18 03:14:45;;;;;;;4.40;1.90;;;0.40;99.90;;;;;;6255415;22;20041;-95
2023/01/18 03:17:19;;;;;;;6.80;2.20;;;0.30;99.90;;;;;;6254956;22;20061;-91
2023/01/18 03:20:06;;;;;;;6.55;1.90;;;0.30;99.90;;;;;;6255062;22;20069;-91
2023/01/18 03:25:33;;;;;;;4.47;1.98;;;0.20;99.90;;;;;;6281142;22;20098;-95
2023/01/18 03:33:44;;;;;;;4.88;1.70;;;0.20;99.90;;;;;;6283136;22;20019;-95
2023/01/18 03:36:30;;;;;;;5.30;2.10;;;0.20;99.90;;;;;;6256906;22;20015;-94
2023/01/18 03:39:14;;;;;;;5.45;1.90;;;0.20;99.90;;;;;;6256811;22;20019;-93
2023/01/18 03:41:44;;;;;;;5.40;2.03;;;0.20;99.90;;;;;;6281016;22;20063;-94
2023/01/18 03:44:15;;;;;;;6.63;2.10;;;0.30;99.90;;;;;;6281448;22;20090;-95
2023/01/18 04:17:48;;;;;;;4.38;1.80;;;0.20;99.90;;;;;;6278307;22;20024;-93
2023/01/18 04:20:14;;;;;;;4.00;1.73;;;0.10;99.90;;;;;;6227093;22;20022;-94
2023/01/18 04:22:40;;;;;;;5.13;2.13;;;0.20;99.90;;;;;;6226593;22;20034;-94
2023/01/18 04:25:06;;;;;;;4.57;1.90;;;0.20;99.90;;;;;;6201537;22;20020;-93
2023/01/18 04:27:32;;;;;;;4.47;1.98;;;0.20;99.90;;;;;;6226120;22;20098;-93
2023/01/18 04:29:57;;;;;;;5.63;2.03;;;0.10;99.90;;;;;;6226661;22;20067;-94
2023/01/18 04:32:27;;;;;;;4.70;2.20;;;0.10;99.90;;;;;;6226525;22;20051;-95
2023/01/18 04:34:53;;;;;;;4.75;2.45;;;0.10;99.90;;;;;;6226641;22;20456;-94
2023/01/18 04:37:29;;;;;;;4.65;1.90;;;0.10;99.90;;;;;;6226419;22;20023;-94
2023/01/18 04:39:54;;;;;;;4.65;2.10;;;0.10;99.90;;;;;;6226463;22;20026;-95
2023/01/18 04:42:20;;;;;;;4.57;2.00;;;0.10;99.90;;;;;;6226394;22;20016;-95
2023/01/18 05:05:29;;;;;;;4.68;2.40;;;-0.10;99.90;;;;;;6308781;22;20747;-95
2023/01/18 05:07:55;;;;;;;5.95;2.35;;;0.00;99.90;;;;;;6280754;22;20023;-94
2023/01/18 05:10:24;;;;;;;5.43;2.72;;;-0.10;99.90;;;;;;6281645;22;20019;-94
2023/01/18 05:12:50;;;;;;;4.28;2.00;;;-0.10;99.90;;;;;;6281849;22;20513;-95
2023/01/18 05:15:17;;;;;;;6.22;2.30;;;-0.10;99.90;;;;;;6281589;22;20072;-92
2023/01/18 05:17:43;;;;;;;6.05;2.53;;;-0.10;99.90;;;;;;6281772;22;20101;-93
2023/01/18 05:20:13;;;;;;;6.18;2.60;;;-0.10;99.90;;;;;;6281813;22;20065;-94
2023/01/18 05:22:42;;;;;;;9.82;2.97;;;-0.10;99.90;;;;;;6281969;22;20479;-94
2023/01/18 05:25:08;;;;;;;6.78;3.40;;;-0.20;99.90;;;;;;6281682;22;20011;-89
2023/01/18 05:27:34;;;;;;;8.18;3.05;;;-0.10;99.90;;;;;;6281661;22;20149;-91
2023/01/18 05:30:00;;;;;;;7.07;2.72;;;-0.20;99.90;;;;;;6256102;22;20011;-93
2023/01/18 05:32:26;;;;;;;7.20;3.45;;;-0.20;99.90;;;;;;6281759;22;20463;-92
2023/01/18 05:34:52;;;;;;;6.97;3.40;;;-0.20;99.90;;;;;;6281809;22;20015;-93
2023/01/18 05:37:18;;;;;;;9.48;3.20;;;-0.20;99.90;;;;;;6255614;22;20073;-94
2023/01/18 05:39:43;;;;;;;6.53;3.15;;;-0.20;99.90;;;;;;6281808;22;20077;-94
2023/01/18 05:42:09;;;;;;;6.30;3.38;;;-0.20;99.90;;;;;;6255711;22;20019;-93
2023/01/18 05:44:35;;;;;;;5.82;3.10;;;-0.20;99.90;;;;;;6281473;22;20068;-96
2023/01/18 05:47:01;;;;;;;6.27;3.17;;;-0.20;99.90;;;;;;6281903;22;20020;-92
2023/01/18 05:49:28;;;;;;;6.97;3.05;;;-0.20;99.90;;;;;;6281538;22;20022;-93
2023/01/18 05:51:54;;;;;;;6.13;3.22;;;-0.20;99.90;;;;;;6281553;22;20455;-95
2023/01/18 05:54:22;;;;;;;7.77;3.33;;;-0.20;99.90;;;;;;6281927;22;20073;-93
2023/01/18 05:56:48;;;;;;;6.72;3.13;;;-0.20;99.90;;;;;;6256227;22;20253;-93
2023/01/18 06:19:47;;;;;;;;;;;;;;;;;;;;;
2023/01/18 06:22:14;;;;;;;6.82;3.30;;;-0.10;99.90;;;;;;6276407;22;20051;-95
2023/01/18 06:24:51;;;;;;;7.47;3.92;;;-0.20;99.90;;;;;;6251458;22;20016;-92
2023/01/18 06:27:16;;;;;;;6.70;3.10;;;-0.10;99.90;;;;;;6225118;22;20020;-94
2023/01/18 06:33:05;;;;;;;8.13;3.42;;;-0.20;99.90;;;;;;6128832;23;20021;-91
2023/01/18 06:35:32;;;;;;;8.82;3.45;;;-0.20;99.90;;;;;;6218608;22;20020;-90
2023/01/18 06:37:58;;;;;;;;;;;-0.20;99.90;;;;;;6225465;22;20361;-91
2023/01/18 06:40:29;;;;;;;8.52;3.88;;;-0.20;99.90;;;;;;6225080;22;19921;-90
2023/01/18 06:43:12;;;;;;;8.18;3.80;;;-0.20;99.90;;;;;;6224989;22;20058;-91
2023/01/18 06:45:39;;;;;;;7.00;3.67;;;-0.20;99.90;;;;;;6199666;22;20627;-91
2023/01/18 06:48:05;;;;;;;7.33;3.53;;;-0.20;99.90;;;;;;6199924;22;20089;-90
2023/01/18 06:53:07;;;;;;;11.05;4.05;;;-0.20;99.90;;;;;;6288963;22;20030;-90
2023/01/18 07:13:45;;;;;;;9.68;3.92;;;-0.20;99.90;;;;;;6310279;22;20023;-95
2023/01/18 07:16:19;;;;;;;11.77;3.85;;;-0.10;99.90;;;;;;6256596;22;20023;-95
2023/01/18 07:18:47;;;;;;;6.78;3.80;;;-0.10;99.90;;;;;;6231237;22;20023;-95
2023/01/18 07:21:28;;;;;;;9.30;3.58;;;-0.10;99.90;;;;;;6256554;22;20023;-95
2023/01/18 07:23:57;;;;;;;8.32;4.15;;;-0.10;99.90;;;;;;6232082;22;20046;-94
2023/01/18 07:27:04;;;;;;;7.53;3.63;;;-0.20;99.90;;;;;;6256541;22;20441;-93
2023/01/18 07:29:30;;;;;;;8.30;3.70;;;-0.20;99.90;;;;;;6255917;22;20440;-94
2023/01/18 07:31:56;;;;;;;6.95;3.60;;;-0.20;99.90;;;;;;6257624;22;20017;-92
2023/01/18 07:34:22;;;;;;;8.00;3.58;;;-0.20;99.90;;;;;;6230938;22;20015;-92
2023/01/18 07:40:58;;;;;;;7.05;3.53;;;-0.20;99.90;;;;;;6309102;22;20030;-91
2023/01/18 07:43:24;;;;;;;6.75;3.50;;;-0.20;99.90;;;;;;6256973;22;20027;-91
2023/01/18 07:45:53;;;;;;;7.30;3.22;;;-0.20;99.90;;;;;;6257211;22;20011;-93
2023/01/18 07:49:04;;;;;;;7.43;3.60;;;-0.10;99.90;;;;;;6256924;22;20033;-93
2023/01/18 07:51:31;;;;;;;8.52;3.53;;;-0.10;99.90;;;;;;6227155;22;20011;-90
2023/01/18 07:53:56;;;;;;;7.65;3.55;;;-0.10;99.90;;;;;;6257230;22;20137;-91
2023/01/18 08:11:55;;;;;;;6.72;3.10;;;0.00;99.90;;;;;;6308787;22;20085;-89
2023/01/18 08:14:20;;;;;;;7.55;3.15;;;0.10;99.90;;;;;;6256537;22;20452;-90
2023/01/18 08:16:46;;;;;;;8.25;3.45;;;0.10;99.90;;;;;;6231496;22;20042;-88
2023/01/18 08:19:12;;;;;;;7.65;2.88;;;0.10;99.90;;;;;;6257155;22;20022;-88
2023/01/18 08:21:37;;;;;;;7.97;3.00;;;0.10;99.90;;;;;;6256396;22;20089;-90
2023/01/18 08:24:03;;;;;;;6.35;3.22;;;0.10;99.90;;;;;;6256667;22;20099;-88
2023/01/18 09:40:42;;;;;;;7.40;2.65;;;0.90;99.90;;;;;;6311584;22;20023;-89
2023/01/18 09:43:42;;;;;;;6.03;2.03;;;1.00;99.90;;;;;;6256493;22;20015;-92
2023/01/18 09:46:18;;;;;;;5.70;2.25;;;1.10;99.90;;;;;;6267565;22;20015;-95
2023/01/18 09:48:47;;;;;;;6.53;2.58;;;1.20;99.90;;;;;;6256069;22;20026;-93
2023/01/18 09:51:24;;;;;;;4.70;2.30;;;1.20;99.90;;;;;;6256340;22;20023;-93
2023/01/18 09:54:00;;;;;;;4.75;2.10;;;1.20;99.90;;;;;;6256198;22;20399;-95
2023/01/18 09:56:51;;;;;;;4.68;2.10;;;1.20;99.90;;;;;;6255602;22;20464;-94
2023/01/18 09:59:32;;;;;;;8.63;3.00;;;1.30;99.90;;;;;;6255817;22;20011;-93
2023/01/18 10:02:02;;;;;;;6.00;2.10;;;1.30;99.90;;;;;;6256034;22;20020;-95
2023/01/18 10:04:35;;;;;;;7.22;2.35;;;1.30;99.90;;;;;;6255927;22;20387;-94
2023/01/18 10:07:14;;;;;;;4.78;2.17;;;1.40;99.90;;;;;;6255853;22;20019;-92
2023/01/18 10:09:47;;;;;;;4.28;1.85;;;1.40;99.90;;;;;;6281475;22;20018;-93
2023/01/18 10:12:25;;;;;;;5.78;2.33;;;1.50;99.90;;;;;;6281518;22;20011;-93
2023/01/18 10:15:00;;;;;;;;;;;1.50;99.90;;;;;;6256327;22;20045;-91
2023/01/18 10:21:05;;;;;;;4.80;2.25;;;1.60;99.90;;;;;;6227720;22;20023;-94
2023/01/18 10:23:53;;;;;;;;;;;;;;;;;;;;;
2023/01/18 10:30:15;;;;;;;5.55;2.30;;;1.80;99.90;;;;;;6297468;22;20022;-92
2023/01/18 10:32:51;;;;;;;4.63;1.95;;;1.90;99.90;;;;;;6255446;22;20089;-91
2023/01/18 11:05:21;;;;;;;5.05;1.88;;;2.30;99.90;;;;;;6307381;22;20042;-90
2023/01/18 11:44:18;;;;;;;4.72;1.70;;;2.80;99.90;;;;;;6329222;22;20023;-92
2023/01/18 11:46:50;;;;;;;5.50;2.08;;;2.80;99.90;;;;;;6288236;22;20015;-89
2023/01/18 12:44:34;;;;;;;5.57;1.75;;;3.40;99.90;;;;;;6292140;22;20024;-92
2023/01/18 16:06:36;;;;;;;6.57;3.15;;;3.50;99.90;;;;;;6310105;22;20444;-90
2023/01/18 16:09:20;;;;;;;5.80;2.20;;;3.40;99.90;;;;;;6260032;22;20412;-94
2023/01/18 16:11:55;;;;;;;4.78;1.83;;;3.40;99.90;;;;;;6259058;22;20050;-96
2023/01/18 16:14:45;;;;;;;6.13;2.17;;;3.40;99.90;;;;;;6236156;22;20018;-92
2023/01/18 16:17:10;;;;;;;5.50;2.00;;;3.30;99.90;;;;;;6259857;22;20141;-92
2023/01/18 16:19:54;;;;;;;4.28;1.90;;;3.30;99.90;;;;;;6290410;22;20448;-91
2023/01/18 16:22:26;;;;;;;3.75;1.60;;;3.30;99.90;;;;;;6262868;22;20075;-92
2023/01/18 16:25:10;;;;;;;4.65;2.08;;;3.20;99.90;;;;;;6262901;22;20037;-93
2023/01/18 16:27:53;;;;;;;6.30;2.05;;;3.20;99.90;;;;;;6265115;22;20019;-91
2023/01/18 16:30:38;;;;;;;4.82;2.25;;;3.10;99.90;;;;;;6262059;22;20027;-91
2023/01/18 16:33:18;;;;;;;5.03;2.28;;;3.10;99.90;;;;;;6262281;22;20021;-90
2023/01/18 16:35:44;;;;;;;6.35;2.08;;;3.10;99.90;;;;;;6239128;22;20015;-91
2023/01/18 16:38:11;;;;;;;6.05;2.63;;;3.00;99.90;;;;;;6261879;22;20051;-95
2023/01/18 16:40:41;;;;;;;;;;;2.90;99.90;;;;;;6260185;22;20011;-93
2023/01/18 16:43:19;;;;;;;7.90;2.70;;;2.90;99.90;;;;;;6258727;22;19989;-96
2023/01/18 16:45:45;;;;;;;;;;;2.90;99.90;;;;;;6259696;22;20021;-91
2023/01/18 16:48:17;;;;;;;4.88;1.92;;;2.90;99.90;;;;;;6259268;22;19922;-89
2023/01/18 16:50:44;;;;;;;3.70;1.55;;;2.90;99.90;;;;;;6260260;22;20015;-88
2023/01/18 16:53:12;;;;;;;4.25;1.67;;;2.90;99.90;;;;;;6260832;22;20012;-88
2023/01/18 16:55:38;;;;;;;4.72;1.83;;;2.80;99.90;;;;;;6260939;22;20098;-89
2023/01/18 16:58:04;;;;;;;4.00;1.60;;;2.80;99.90;;;;;;6236219;22;20033;-90
2023/01/18 17:00:58;;;;;;;4.72;1.90;;;2.80;99.90;;;;;;6261457;22;20015;-91
2023/01/18 17:03:24;;;;;;;3.25;1.25;;;2.70;99.90;;;;;;6262851;22;20015;-88
2023/01/18 17:05:50;;;;;;;16.23;8.33;;;2.70;99.90;;;;;;6238719;22;20064;-95
2023/01/18 17:08:19;;;;;;;5.35;2.90;;;2.60;99.90;;;;;;6311230;22;20075;-91
2023/01/18 17:10:49;;;;;;;4.40;2.47;;;2.60;99.90;;;;;;6287497;22;20015;-95
2023/01/18 17:13:16;;;;;;;5.55;3.17;;;2.60;99.90;;;;;;6284735;22;20053;-93
2023/01/18 17:15:44;;;;;;;5.40;2.72;;;2.60;99.90;;;;;;6262295;22;20015;-96
2023/01/18 17:18:20;;;;;;;5.93;2.75;;;2.60;99.90;;;;;;6288000;22;20016;-94
2023/01/18 17:20:49;;;;;;;4.85;2.10;;;2.50;99.90;;;;;;6287118;22;20047;-89
2023/01/18 17:23:15;;;;;;;5.00;2.60;;;2.50;99.90;;;;;;6290694;22;20049;-91
2023/01/18 17:25:42;;;;;;;6.60;4.72;;;2.50;99.90;;;;;;6290077;22;20019;-93
2023/01/18 17:28:12;;;;;;;6.90;3.42;;;2.50;99.90;;;;;;6289843;22;20026;-89
2023/01/18 17:30:41;;;;;;;6.60;3.78;;;2.50;99.90;;;;;;6290686;22;20019;-92
2023/01/18 17:33:15;;;;;;;4.82;2.22;;;2.50;99.90;;;;;;6290135;22;20506;-87
2023/01/18 17:35:55;;;;;;;6.45;2.95;;;2.60;99.90;;;;;;6293014;22;20019;-92
2023/01/18 17:38:21;;;;;;;5.05;3.20;;;2.50;99.90;;;;;;6290364;22;20015;-94
2023/01/18 17:40:47;;;;;;;5.47;2.73;;;2.40;99.90;;;;;;6289647;22;20372;-91
2023/01/18 17:43:17;;;;;;;4.28;2.30;;;2.40;99.90;;;;;;6291541;22;20034;-92
2023/01/18 17:46:05;;;;;;;5.38;2.90;;;2.30;99.90;;;;;;6291388;22;20322;-93
2023/01/18 17:48:30;;;;;;;4.38;2.00;;;2.30;99.90;;;;;;6289880;22;20011;-91
2023/01/18 17:51:03;;;;;;;4.03;2.10;;;2.30;99.90;;;;;;6291032;22;20046;-95
2023/01/18 17:53:28;;;;;;;5.55;2.38;;;2.30;99.90;;;;;;6260780;22;20038;-90
2023/01/18 17:55:57;;;;;;;5.68;2.17;;;2.30;99.90;;;;;;6263377;22;20019;-93
2023/01/18 18:03:33;;;;;;;4.30;2.20;;;2.40;99.90;;;;;;6286953;22;20028;-91
2023/01/18 18:06:02;;;;;;;5.28;2.22;;;2.40;99.90;;;;;;6232426;22;20051;-94
2023/01/18 18:08:32;;;;;;;5.10;2.13;;;2.40;99.90;;;;;;6237187;22;20050;-92
2023/01/18 18:11:01;;;;;;;5.55;2.50;;;2.50;99.90;;;;;;6262564;22;19999;-94
2023/01/18 18:13:30;;;;;;;4.13;2.10;;;2.50;99.90;;;;;;6229933;22;20089;-89
2023/01/18 18:15:56;;;;;;;5.82;2.00;;;2.60;99.90;;;;;;6227025;22;20094;-88
2023/01/18 18:18:22;;;;;;;4.90;2.03;;;2.60;99.90;;;;;;6206480;22;20027;-93
2023/01/18 18:20:56;;;;;;;5.30;2.40;;;2.60;99.90;;;;;;6228870;22;20026;-92
2023/01/18 18:31:14;;;;;;;7.53;3.38;;;2.60;99.90;;;;;;6311355;22;20019;-91
2023/01/18 18:33:40;;;;;;;6.47;2.45;;;2.60;99.90;;;;;;6257980;22;20054;-92
2023/01/18 18:36:06;;;;;;;4.35;2.15;;;2.60;99.90;;;;;;6257724;22;20030;-88
2023/01/18 18:38:37;;;;;;;4.38;2.20;;;2.60;99.90;;;;;;6259486;22;20026;-95
2023/01/18 18:41:11;;;;;;;6.22;2.45;;;2.60;99.90;;;;;;6233979;22;20019;-92
2023/01/18 18:43:37;;;;;;;5.45;2.38;;;2.60;99.90;;;;;;6264562;22;20093;-91
2023/01/18 18:46:18;;;;;;;5.18;2.28;;;2.60;99.90;;;;;;6294000;22;20030;-89
2023/01/18 18:48:44;;;;;;;6.30;2.10;;;2.60;99.90;;;;;;6263556;22;20011;-92
2023/01/18 18:51:13;;;;;;;7.07;2.08;;;2.60;99.90;;;;;;6238249;22;20035;-90
2023/01/18 18:53:38;;;;;;;5.40;1.98;;;2.50;99.90;;;;;;6264775;22;20019;-90
2023/01/18 19:06:28;;;;;;;9.98;3.17;;;2.30;99.90;;;;;;6314244;22;20042;-91
2023/01/18 19:11:43;;;;;;;5.97;2.35;;;2.30;99.90;;;;;;6285280;22;20024;-88
2023/01/18 19:14:09;;;;;;;4.78;2.13;;;2.40;99.90;;;;;;6256198;22;20023;-89
2023/01/18 19:16:38;;;;;;;3.15;1.42;;;2.40;99.90;;;;;;6230750;22;20012;-90
2023/01/18 19:19:04;;;;;;;3.88;1.60;;;2.40;99.90;;;;;;6227580;22;20019;-95
2023/01/18 19:29:16;;;;;;;4.78;2.05;;;2.40;99.90;;;;;;6310542;22;20020;-94
2023/01/18 19:31:46;;;;;;;3.17;1.47;;;2.40;99.90;;;;;;6238955;22;20356;-92
2023/01/18 19:34:13;;;;;;;3.28;1.40;;;2.40;99.90;;;;;;6256034;22;20019;-91
2023/01/18 19:36:42;;;;;;;3.25;1.38;;;2.40;99.90;;;;;;6258988;22;20015;-92
2023/01/18 19:39:08;;;;;;;3.30;1.20;;;2.40;99.90;;;;;;6264585;22;20039;-89
2023/01/18 19:46:55;;;;;;;1.42;0.50;;;2.60;99.90;;;;;;6314681;22;20023;-93
2023/01/18 19:49:30;;;;;;;2.17;0.60;;;2.60;99.90;;;;;;6262812;22;20023;-91
2023/01/18 20:18:01;;;;;;;1.30;0.50;;;2.80;99.90;;;;;;6332553;22;20018;-93
2023/01/18 20:20:36;;;;;;;1.52;0.40;;;2.70;99.90;;;;;;6291615;22;20025;-93
2023/01/18 20:23:06;;;;;;;3.30;0.65;;;2.80;99.90;;;;;;6291793;22;20018;-92
2023/01/18 20:25:54;;;;;;;1.30;0.52;;;2.80;99.90;;;;;;6267482;22;20044;-92
2023/01/18 20:28:47;;;;;;;3.42;0.50;;;2.80;99.90;;;;;;6260320;22;20018;-95
2023/01/18 20:31:17;;;;;;;1.05;0.30;;;2.80;99.90;;;;;;6267439;22;20114;-93
2023/01/18 20:44:31;;;;;;;2.75;0.63;;;2.80;99.90;;;;;;6317553;22;20027;-92
2023/01/18 20:47:16;;;;;;;1.05;0.40;;;2.80;99.90;;;;;;6271683;22;20019;-96
2023/01/18 20:52:22;;;;;;;1.35;0.40;;;2.90;99.90;;;;;;6322385;22;20023;-90
2023/01/18 20:55:54;;;;;;;1.30;0.40;;;2.90;99.90;;;;;;6267923;22;20023;-93
2023/01/18 23:17:56;;;;;;;1.05;0.30;;;3.10;99.90;;;;;;6313829;22;20023;-94
